createdAt,value
2022-09-07T00:00:41.758Z,10.68
2022-09-07T00:03:08.979Z,14.25
2022-09-07T00:05:45.231Z,9.40
2022-09-07T00:08:12.983Z,10.05
2022-09-07T00:10:40.216Z,11.98
2022-09-07T00:13:08.453Z,9.00
2022-09-07T00:15:40.706Z,10.65
2022-09-07T00:18:08.100Z,9.20
2022-09-07T00:20:35.198Z,8.10
2022-09-07T00:23:02.227Z,11.98
2022-09-07T00:25:31.944Z,12.57
2022-09-07T00:27:59.658Z,10.13
2022-09-07T00:30:27.583Z,9.90
2022-09-07T00:32:54.568Z,9.35
2022-09-07T00:35:21.790Z,10.30
2022-09-07T00:37:48.847Z,11.38
2022-09-07T00:40:16.069Z,12.73
2022-09-07T00:42:43.099Z,9.98
2022-09-07T00:45:19.217Z,11.20
2022-09-07T00:48:04.988Z,11.07
2022-09-07T00:50:37.519Z,10.73
2022-09-07T00:53:16.495Z,12.32
2022-09-07T00:55:47.759Z,11.43
2022-09-07T00:58:15.581Z,15.15
2022-09-07T01:00:45.875Z,11.20
2022-09-07T01:03:16.390Z,9.95
2022-09-07T01:05:48.454Z,12.25
2022-09-07T01:08:15.700Z,11.32
2022-09-07T01:10:42.952Z,11.00
2022-09-07T01:13:09.929Z,10.18
2022-09-07T01:16:08.059Z,12.15
2022-09-07T01:19:07.471Z,12.48
2022-09-07T01:21:34.441Z,13.05
2022-09-07T01:24:22.945Z,13.15
2022-09-07T01:27:08.794Z,9.80
2022-09-07T01:29:46.494Z,12.55
2022-09-07T01:32:42.274Z,11.88
2022-09-07T01:35:32.861Z,11.10
2022-09-07T01:38:16.083Z,10.80
2022-09-07T01:40:54.818Z,10.85
2022-09-07T01:43:46.001Z,10.18
2022-09-07T01:46:23.027Z,10.25
2022-09-07T01:48:53.542Z,12.15
2022-09-07T01:51:23.519Z,9.60
2022-09-07T01:54:02.241Z,13.00
2022-09-07T01:56:36.908Z,11.32
2022-09-07T01:59:15.160Z,11.68
2022-09-07T02:01:50.582Z,11.63
2022-09-07T02:04:21.713Z,11.88
2022-09-07T02:07:02.056Z,10.73
2022-09-07T02:09:52.750Z,10.48
2022-09-07T02:12:29.142Z,11.38
2022-09-07T02:15:02.619Z,10.43
2022-09-07T02:17:36.213Z,12.25
2022-09-07T02:20:14.063Z,11.80
2022-09-07T02:22:46.245Z,12.60
2022-09-07T02:25:21.974Z,14.82
2022-09-07T02:27:55.735Z,16.42
2022-09-07T02:30:22.759Z,16.52
2022-09-07T02:32:49.826Z,16.45
2022-09-07T02:35:17.634Z,17.92
2022-09-07T02:37:45.921Z,16.58
2022-09-07T02:40:13.348Z,14.00
2022-09-07T02:42:40.738Z,14.93
2022-09-07T02:45:11.283Z,15.82
2022-09-07T02:48:08.056Z,12.40
2022-09-07T02:51:12.510Z,15.32
2022-09-07T02:53:58.132Z,16.55
2022-09-07T02:56:43.993Z,19.15
2022-09-07T02:59:37.543Z,14.95
2022-09-07T03:02:08.126Z,14.65
2022-09-07T03:04:48.430Z,12.88
2022-09-07T03:07:19.195Z,14.60
2022-09-07T03:09:50.581Z,14.65
2022-09-07T03:12:17.833Z,15.38
2022-09-07T03:14:45.255Z,14.05
2022-09-07T03:17:12.715Z,14.15
2022-09-07T03:19:39.774Z,11.65
2022-09-07T03:22:07.235Z,13.93
2022-09-07T03:24:34.484Z,15.13
2022-09-07T03:27:01.479Z,13.95
2022-09-07T03:29:28.651Z,13.75
2022-09-07T03:31:55.626Z,12.18
2022-09-07T03:34:22.568Z,12.85
2022-09-07T03:36:49.521Z,13.73
2022-09-07T03:39:16.606Z,15.98
2022-09-07T03:41:43.634Z,16.98
2022-09-07T03:44:10.876Z,16.17
2022-09-07T03:46:37.801Z,14.07
2022-09-07T03:49:04.883Z,12.95
2022-09-07T03:51:31.928Z,9.60
2022-09-07T03:54:00.939Z,11.90
2022-09-07T03:56:27.972Z,11.85
2022-09-07T03:58:55.992Z,10.50
2022-09-07T04:01:25.610Z,10.47
2022-09-07T04:03:54.910Z,13.35
2022-09-07T04:06:24.008Z,14.15
2022-09-07T04:08:51.271Z,14.80
2022-09-07T04:11:19.687Z,13.25
2022-09-07T04:13:46.766Z,11.90
2022-09-07T04:16:21.350Z,13.27
2022-09-07T04:18:50.624Z,12.65
2022-09-07T04:21:18.927Z,13.07
2022-09-07T04:23:46.437Z,9.90
2022-09-07T04:26:15.853Z,12.68
2022-09-07T04:28:42.906Z,10.98
2022-09-07T04:31:10.266Z,13.93
2022-09-07T04:33:37.520Z,12.40
2022-09-07T04:36:05.508Z,15.35
2022-09-07T04:38:32.601Z,9.60
2022-09-07T04:41:09.722Z,16.77
2022-09-07T04:43:38.331Z,15.23
2022-09-07T04:46:07.959Z,13.10
2022-09-07T04:48:35.610Z,17.10
2022-09-07T04:51:10.430Z,13.63
2022-09-07T04:53:39.098Z,10.60
2022-09-07T04:56:06.510Z,14.07
2022-09-07T04:58:33.878Z,13.05
2022-09-07T05:01:02.636Z,15.25
2022-09-07T05:03:31.360Z,11.68
2022-09-07T05:06:01.633Z,10.85
2022-09-07T05:08:29.720Z,11.77
2022-09-07T05:10:57.989Z,10.45
2022-09-07T05:13:25.859Z,9.55
2022-09-07T05:15:52.891Z,12.15
2022-09-07T05:18:19.930Z,14.18
2022-09-07T05:20:47.139Z,21.30
2022-09-07T05:23:14.481Z,14.15
2022-09-07T05:25:46.060Z,11.23
2022-09-07T05:28:18.584Z,10.52
2022-09-07T05:36:21.778Z,11.00
2022-09-07T05:38:48.729Z,9.85
2022-09-07T05:41:20.218Z,8.10
2022-09-07T05:46:35.149Z,7.55
2022-09-07T05:49:03.657Z,8.30
2022-09-07T05:51:30.650Z,14.32
2022-09-07T05:53:59.039Z,7.35
2022-09-07T05:56:26.652Z,15.05
2022-09-07T05:58:53.647Z,6.75
2022-09-07T06:01:20.850Z,8.90
2022-09-07T06:03:47.868Z,9.55
2022-09-07T06:06:19.711Z,10.18
2022-09-07T06:08:49.631Z,10.88
2022-09-07T06:11:22.120Z,8.85
2022-09-07T06:13:49.844Z,10.10
2022-09-07T06:16:17.971Z,9.20
2022-09-07T06:18:47.302Z,9.38
2022-09-07T06:21:17.266Z,6.65
2022-09-07T06:23:45.797Z,12.10
2022-09-07T06:26:14.239Z,15.88
2022-09-07T06:28:43.423Z,8.45
2022-09-07T06:31:13.986Z,12.38
2022-09-07T06:33:42.503Z,7.47
2022-09-07T06:36:17.554Z,8.85
2022-09-07T06:38:45.287Z,5.45
2022-09-07T06:44:04.277Z,9.20
2022-09-07T06:49:18.331Z,7.13
2022-09-07T06:51:45.359Z,12.48
2022-09-07T06:56:59.732Z,10.88
2022-09-07T06:59:26.750Z,9.82
2022-09-07T07:01:53.710Z,12.93
2022-09-07T07:04:20.934Z,9.60
2022-09-07T07:06:47.838Z,14.02
2022-09-07T07:09:14.847Z,11.23
2022-09-07T07:11:43.852Z,10.30
2022-09-07T07:14:18.142Z,6.35
2022-09-07T07:16:45.858Z,9.18
2022-09-07T07:19:13.560Z,10.25
2022-09-07T07:22:07.359Z,7.82
2022-09-07T07:24:27.969Z,6.93
2022-09-07T07:26:54.989Z,4.03
2022-09-07T07:29:23.874Z,6.40
2022-09-07T07:31:52.188Z,4.82
2022-09-07T07:34:19.405Z,5.47
2022-09-07T07:36:46.376Z,5.18
2022-09-07T07:42:03.266Z,3.20
2022-09-07T07:44:31.922Z,3.63
2022-09-07T07:46:58.915Z,3.70
2022-09-07T07:49:26.101Z,3.25
2022-09-07T07:54:44.160Z,6.80
2022-09-07T07:57:12.117Z,3.60
2022-09-07T07:59:39.785Z,6.43
2022-09-07T08:02:09.081Z,1.85
2022-09-07T08:04:36.499Z,2.65
2022-09-07T08:07:09.446Z,4.35
2022-09-07T08:09:37.620Z,5.43
2022-09-07T08:12:04.585Z,2.97
2022-09-07T08:14:31.572Z,5.32
2022-09-07T08:16:58.492Z,3.28
2022-09-07T08:19:25.303Z,1.70
2022-09-07T08:21:52.246Z,1.60
2022-09-07T08:24:19.568Z,2.92
2022-09-07T08:26:48.070Z,4.45
2022-09-07T08:29:15.471Z,2.42
2022-09-07T08:31:42.618Z,2.95
2022-09-07T08:34:09.591Z,1.15
2022-09-07T08:36:36.536Z,2.15
2022-09-07T08:39:03.603Z,3.03
2022-09-07T08:41:57.895Z,2.95
2022-09-07T08:44:39.034Z,2.25
2022-09-07T08:47:43.974Z,2.75
2022-09-07T08:50:39.087Z,2.03
2022-09-07T08:53:15.395Z,3.20
2022-09-07T08:56:11.676Z,4.50
2022-09-07T08:58:49.629Z,4.60
2022-09-07T09:01:37.900Z,3.50
2022-09-07T09:04:16.572Z,2.33
2022-09-07T09:06:53.387Z,5.22
2022-09-07T09:09:38.227Z,3.70
2022-09-07T09:12:44.221Z,1.58
2022-09-07T09:15:11.160Z,3.25
2022-09-07T09:17:47.329Z,1.70
2022-09-07T09:20:24.546Z,1.95
2022-09-07T09:22:57.262Z,1.08
2022-09-07T09:25:33.828Z,1.30
2022-09-07T09:28:01.314Z,1.23
2022-09-07T09:30:29.470Z,3.33
2022-09-07T09:33:23.194Z,4.55
2022-09-07T09:35:52.583Z,2.17
2022-09-07T09:38:30.334Z,3.22
2022-09-07T09:41:00.478Z,2.15
2022-09-07T09:43:52.541Z,2.35
2022-09-07T09:46:39.847Z,4.70
2022-09-07T09:49:23.326Z,1.80
2022-09-07T09:54:49.249Z,1.27
2022-09-07T09:57:17.938Z,3.22
2022-09-07T10:00:03.857Z,1.23
2022-09-07T10:05:38.923Z,2.90
2022-09-07T10:08:30.886Z,1.92
2022-09-07T10:11:06.810Z,6.28
2022-09-07T10:13:55.629Z,2.00
2022-09-07T10:16:41.906Z,1.90
2022-09-07T10:19:37.454Z,2.85
2022-09-07T10:22:26.458Z,2.17
2022-09-07T10:24:53.533Z,2.83
2022-09-07T10:27:30.663Z,1.38
2022-09-07T10:29:58.058Z,1.50
2022-09-07T10:33:05.156Z,4.30
2022-09-07T10:35:36.039Z,2.33
2022-09-07T10:38:25.041Z,2.67
2022-09-07T10:41:02.010Z,1.45
2022-09-07T10:43:46.061Z,3.25
2022-09-07T10:49:27.811Z,4.55
2022-09-07T10:52:18.749Z,1.77
2022-09-07T10:57:53.997Z,4.68
2022-09-07T11:00:22.944Z,1.40
2022-09-07T11:03:27.613Z,1.60
2022-09-07T11:06:11.075Z,1.13
2022-09-07T11:09:22.790Z,3.78
2022-09-07T11:12:01.131Z,2.83
2022-09-07T11:14:31.823Z,0.77
2022-09-07T11:17:03.287Z,4.22
2022-09-07T11:20:24.730Z,1.48
2022-09-07T11:23:18.616Z,3.28
2022-09-07T11:26:07.883Z,1.60
2022-09-07T11:28:47.129Z,3.90
2022-09-07T11:31:39.586Z,1.27
2022-09-07T11:34:24.299Z,2.95
2022-09-07T11:36:59.190Z,1.95
2022-09-07T11:39:35.871Z,1.00
2022-09-07T11:45:16.057Z,1.92
2022-09-07T11:47:54.562Z,1.25
2022-09-07T11:50:24.075Z,1.42
2022-09-07T11:52:56.642Z,1.92
2022-09-07T11:55:27.635Z,2.53
2022-09-07T11:58:14.987Z,2.13
2022-09-07T12:01:16.165Z,1.98
2022-09-07T12:04:15.491Z,1.92
2022-09-07T12:06:57.384Z,2.17
2022-09-07T12:09:39.984Z,3.38
2022-09-07T12:12:42.446Z,4.25
2022-09-07T12:15:28.116Z,4.72
2022-09-07T12:18:25.616Z,2.63
2022-09-07T12:20:52.757Z,1.77
2022-09-07T12:23:28.199Z,0.98
2022-09-07T12:26:44.020Z,1.25
2022-09-07T12:29:23.863Z,2.47
2022-09-07T12:32:07.422Z,3.70
2022-09-07T12:34:54.765Z,2.25
2022-09-07T12:37:27.694Z,1.23
2022-09-07T12:40:33.511Z,1.73
2022-09-07T12:43:12.728Z,1.70
2022-09-07T12:45:39.628Z,1.85
2022-09-07T12:48:15.583Z,4.63
2022-09-07T12:51:16.708Z,4.03
2022-09-07T12:54:08.808Z,2.15
2022-09-07T12:56:46.880Z,1.02
2022-09-07T12:59:32.267Z,4.00
2022-09-07T13:02:45.725Z,1.42
2022-09-07T13:05:37.586Z,1.58
2022-09-07T13:08:43.020Z,1.55
2022-09-07T13:11:40.573Z,2.55
2022-09-07T13:14:09.438Z,5.60
2022-09-07T13:19:50.964Z,2.35
2022-09-07T13:22:33.143Z,1.55
2022-09-07T13:25:02.419Z,4.03
2022-09-07T13:27:54.430Z,4.78
2022-09-07T13:30:43.554Z,1.98
2022-09-07T13:33:26.363Z,3.08
2022-09-07T13:35:57.130Z,3.85
2022-09-07T13:40:53.395Z,4.93
2022-09-07T13:43:22.771Z,2.72
2022-09-07T13:45:56.023Z,3.55
2022-09-07T13:48:32.404Z,2.67
2022-09-07T13:51:02.095Z,2.00
2022-09-07T13:53:47.489Z,3.53
2022-09-07T13:56:17.252Z,2.83
2022-09-07T13:58:50.130Z,2.95
2022-09-07T14:01:23.287Z,4.40
2022-09-07T14:04:07.722Z,5.22
2022-09-07T14:06:36.734Z,1.33
2022-09-07T14:09:14.333Z,3.20
2022-09-07T14:11:47.077Z,3.17
2022-09-07T14:14:33.065Z,2.53
2022-09-07T14:17:00.178Z,2.33
2022-09-07T14:19:42.917Z,4.05
2022-09-07T14:22:16.425Z,3.58
2022-09-07T14:24:55.776Z,3.35
2022-09-07T14:27:26.368Z,3.28
2022-09-07T14:29:53.703Z,3.15
2022-09-07T14:32:25.215Z,3.83
2022-09-07T14:34:52.854Z,6.60
2022-09-07T14:37:23.205Z,3.95
2022-09-07T14:39:51.168Z,4.13
2022-09-07T14:42:23.081Z,2.42
2022-09-07T14:44:50.544Z,4.00
2022-09-07T14:47:30.581Z,2.20
2022-09-07T14:50:06.187Z,3.25
2022-09-07T14:52:43.531Z,2.53
2022-09-07T14:55:28.604Z,5.53
2022-09-07T14:58:30.970Z,2.40
2022-09-07T15:04:18.446Z,2.33
2022-09-07T15:07:02.642Z,3.35
2022-09-07T15:09:39.043Z,2.83
2022-09-07T15:12:27.187Z,3.95
2022-09-07T15:15:11.944Z,5.00
2022-09-07T15:17:46.227Z,3.20
2022-09-07T15:20:41.320Z,4.18
2022-09-07T15:23:11.337Z,2.45
2022-09-07T15:25:40.412Z,3.20
2022-09-07T15:28:08.044Z,4.50
2022-09-07T15:30:35.390Z,4.05
2022-09-07T15:33:02.449Z,5.53
2022-09-07T15:35:29.420Z,3.15
2022-09-07T15:38:05.326Z,8.50
2022-09-07T15:41:03.808Z,1.60
2022-09-07T15:43:30.560Z,5.60
2022-09-07T15:45:57.598Z,1.60
2022-09-07T15:48:25.508Z,2.78
2022-09-07T15:51:00.316Z,10.57
2022-09-07T15:56:15.647Z,2.47
2022-09-07T15:58:44.113Z,4.60
2022-09-07T16:04:01.666Z,4.78
2022-09-07T16:06:31.430Z,4.13
2022-09-07T16:08:58.393Z,6.10
2022-09-07T16:11:27.641Z,7.30
2022-09-07T16:14:01.822Z,5.72
2022-09-07T16:19:20.597Z,4.80
2022-09-07T16:21:48.053Z,2.65
2022-09-07T16:24:15.382Z,6.25
2022-09-07T16:26:42.525Z,3.17
2022-09-07T16:29:09.448Z,2.08
2022-09-07T16:31:37.127Z,2.75
2022-09-07T16:34:04.610Z,4.43
2022-09-07T16:36:31.616Z,2.75
2022-09-07T16:39:01.427Z,5.45
2022-09-07T16:41:32.052Z,5.33
2022-09-07T16:43:59.506Z,3.10
2022-09-07T16:46:28.954Z,6.28
2022-09-07T16:48:55.903Z,5.53
2022-09-07T16:51:24.266Z,5.60
2022-09-07T16:53:54.500Z,8.18
2022-09-07T16:56:24.485Z,10.18
2022-09-07T16:58:56.884Z,12.30
2022-09-07T17:01:26.667Z,8.65
2022-09-07T17:03:54.003Z,16.40
2022-09-07T17:06:23.848Z,9.13
2022-09-07T17:08:52.722Z,13.43
2022-09-07T17:11:22.964Z,19.10
2022-09-07T17:13:50.402Z,5.63
2022-09-07T17:16:22.830Z,4.07
2022-09-07T17:21:40.025Z,5.30
2022-09-07T17:24:08.799Z,5.25
2022-09-07T17:26:36.438Z,9.15
2022-09-07T17:29:03.394Z,8.95
2022-09-07T17:34:20.193Z,9.52
2022-09-07T17:36:47.776Z,14.07
2022-09-07T17:39:16.861Z,11.93
2022-09-07T17:41:44.889Z,8.63
2022-09-07T17:44:12.346Z,10.07
2022-09-07T17:46:39.505Z,10.60
2022-09-07T17:49:10.529Z,10.85
2022-09-07T17:51:37.512Z,12.05
2022-09-07T17:54:10.947Z,14.10
2022-09-07T17:56:39.592Z,13.25
2022-09-07T18:01:54.358Z,10.38
2022-09-07T18:04:22.108Z,10.68
2022-09-07T18:06:49.445Z,9.85
2022-09-07T18:09:16.591Z,8.40
2022-09-07T18:11:45.813Z,8.65
2022-09-07T18:14:14.953Z,8.57
2022-09-07T18:16:45.263Z,10.88
2022-09-07T18:19:13.561Z,10.43
2022-09-07T18:21:42.579Z,14.07
2022-09-07T18:24:17.297Z,17.73
2022-09-07T18:26:50.125Z,15.73
2022-09-07T18:29:28.580Z,15.52
2022-09-07T18:31:56.328Z,12.65
2022-09-07T18:34:23.571Z,12.77
2022-09-07T18:36:50.811Z,12.95
2022-09-07T18:39:17.801Z,13.18
2022-09-07T18:41:44.807Z,11.45
2022-09-07T18:46:58.652Z,13.23
2022-09-07T18:49:25.635Z,11.77
2022-09-07T18:54:41.418Z,20.35
2022-09-07T18:57:08.778Z,16.77
2022-09-07T18:59:36.261Z,17.33
2022-09-07T19:02:05.743Z,17.27
2022-09-07T19:07:21.258Z,18.50
2022-09-07T19:09:49.270Z,14.35
2022-09-07T19:12:18.294Z,14.35
2022-09-07T19:14:45.115Z,15.30
2022-09-07T19:17:12.243Z,16.27
2022-09-07T19:19:40.362Z,14.57
2022-09-07T19:22:07.408Z,15.07
2022-09-07T19:24:34.629Z,14.85
2022-09-07T19:27:01.591Z,16.50
2022-09-07T19:29:28.967Z,14.13
2022-09-07T19:32:05.118Z,15.77
2022-09-07T19:34:34.430Z,15.43
2022-09-07T19:37:02.120Z,11.98
2022-09-07T19:39:29.175Z,12.05
2022-09-07T19:41:58.446Z,9.10
2022-09-07T19:44:26.032Z,11.15
2022-09-07T19:46:53.034Z,13.27
2022-09-07T19:49:20.088Z,10.48
2022-09-07T19:51:49.738Z,8.98
2022-09-07T19:54:16.727Z,10.18
2022-09-07T19:56:45.059Z,9.30
2022-09-07T19:59:12.716Z,8.77
2022-09-07T20:01:40.935Z,11.52
2022-09-07T20:04:16.053Z,10.45
2022-09-07T20:06:47.060Z,11.57
2022-09-07T20:09:14.429Z,11.00
2022-09-07T20:11:46.079Z,11.85
2022-09-07T20:14:14.140Z,10.50
2022-09-07T20:16:42.006Z,13.10
2022-09-07T20:19:11.272Z,11.65
2022-09-07T20:21:38.391Z,12.57
2022-09-07T20:24:05.513Z,13.60
2022-09-07T20:26:33.042Z,12.45
2022-09-07T20:29:27.287Z,13.77
2022-09-07T20:31:47.710Z,14.32
2022-09-07T20:34:14.687Z,16.88
2022-09-07T20:36:42.099Z,13.52
2022-09-07T20:39:15.935Z,15.57
2022-09-07T20:41:42.889Z,11.45
2022-09-07T20:44:09.916Z,16.98
2022-09-07T20:46:37.361Z,12.02
2022-09-07T20:49:05.568Z,12.35
2022-09-07T20:51:32.739Z,11.88
2022-09-07T20:53:59.947Z,13.77
2022-09-07T20:56:28.699Z,12.35
2022-09-07T20:58:57.761Z,17.08
2022-09-07T21:01:24.842Z,12.13
2022-09-07T21:03:54.867Z,10.77
2022-09-07T21:06:23.515Z,11.13
2022-09-07T21:08:51.454Z,9.95
2022-09-07T21:11:27.041Z,14.40
2022-09-07T21:14:00.067Z,12.63
2022-09-07T21:16:27.921Z,16.88
2022-09-07T21:18:56.576Z,11.98
2022-09-07T21:21:24.973Z,14.02
2022-09-07T21:23:59.925Z,13.27
2022-09-07T21:26:30.544Z,10.25
2022-09-07T21:29:02.006Z,10.52
2022-09-07T21:31:31.836Z,9.40
2022-09-07T21:34:01.004Z,11.82
2022-09-07T21:36:29.007Z,9.65
2022-09-07T21:38:56.176Z,11.40
2022-09-07T21:41:25.353Z,12.77
2022-09-07T21:44:02.222Z,10.57
2022-09-07T21:46:31.721Z,9.48
2022-09-07T21:48:59.790Z,10.63
2022-09-07T21:51:28.917Z,10.90
2022-09-07T21:53:57.882Z,7.03
2022-09-07T21:56:25.314Z,9.07
2022-09-07T21:58:57.501Z,12.45
2022-09-07T22:01:26.269Z,9.13
2022-09-07T22:04:01.887Z,9.00
2022-09-07T22:06:29.650Z,8.77
2022-09-07T22:08:57.114Z,9.15
2022-09-07T22:11:26.215Z,7.43
2022-09-07T22:13:57.854Z,9.60
2022-09-07T22:16:24.930Z,9.93
2022-09-07T22:18:52.032Z,11.15
2022-09-07T22:21:21.967Z,8.60
2022-09-07T22:23:52.013Z,9.48
2022-09-07T22:26:21.906Z,8.33
2022-09-07T22:28:49.489Z,8.65
2022-09-07T22:31:36.578Z,8.05
2022-09-07T22:34:05.623Z,11.63
2022-09-07T22:36:35.032Z,6.93
2022-09-07T22:39:05.842Z,12.27
2022-09-07T22:41:34.964Z,12.98
2022-09-07T22:44:02.456Z,11.18
2022-09-07T22:46:31.141Z,11.43
2022-09-07T22:48:59.436Z,10.15
2022-09-07T22:51:27.353Z,8.98
2022-09-07T22:53:56.205Z,8.55
2022-09-07T22:56:26.208Z,9.10
2022-09-07T22:58:56.286Z,7.20
2022-09-07T23:01:25.063Z,10.05
2022-09-07T23:03:52.302Z,7.60
2022-09-07T23:06:31.183Z,9.73
2022-09-07T23:08:59.958Z,7.53
2022-09-07T23:11:27.526Z,7.78
2022-09-07T23:13:56.475Z,8.07
2022-09-07T23:16:23.941Z,8.63
2022-09-07T23:18:51.238Z,8.70
2022-09-07T23:21:18.806Z,10.65
2022-09-07T23:23:53.708Z,10.90
2022-09-07T23:26:22.705Z,10.40
2022-09-07T23:29:01.201Z,12.45
2022-09-07T23:31:29.816Z,9.15
2022-09-07T23:34:00.338Z,11.65
2022-09-07T23:36:27.757Z,11.27
2022-09-07T23:38:56.483Z,8.57
2022-09-07T23:41:25.297Z,10.02
2022-09-07T23:43:53.457Z,10.98
2022-09-07T23:46:21.287Z,9.23
2022-09-07T23:48:49.429Z,7.13
2022-09-07T23:51:21.306Z,8.77
2022-09-07T23:53:50.870Z,8.43
2022-09-07T23:56:17.795Z,8.65
2022-09-07T23:58:44.685Z,9.65
